sensor_id;sensor_type;location;lat;lon;timestamp;P1;durP1;ratioP1;P2;durP2;ratioP2
68273;SDS011;55104;47.356;19.448;2022-08-25T00:01:32;16.17;;;7.10;;
68273;SDS011;55104;47.356;19.448;2022-08-25T00:04:37;16.63;;;7.40;;
68273;SDS011;55104;47.356;19.448;2022-08-25T00:07:40;17.67;;;7.78;;
68273;SDS011;55104;47.356;19.448;2022-08-25T00:10:42;13.70;;;7.20;;
68273;SDS011;55104;47.356;19.448;2022-08-25T00:14:02;16.15;;;7.40;;
68273;SDS011;55104;47.356;19.448;2022-08-25T00:17:08;16.48;;;7.10;;
68273;SDS011;55104;47.356;19.448;2022-08-25T00:20:10;13.80;;;7.13;;
68273;SDS011;55104;47.356;19.448;2022-08-25T00:23:13;15.02;;;7.43;;
68273;SDS011;55104;47.356;19.448;2022-08-25T00:26:15;16.08;;;7.60;;
68273;SDS011;55104;47.356;19.448;2022-08-25T00:29:19;18.13;;;6.93;;
68273;SDS011;55104;47.356;19.448;2022-08-25T00:32:22;15.23;;;6.93;;
68273;SDS011;55104;47.356;19.448;2022-08-25T00:35:26;17.13;;;7.00;;
68273;SDS011;55104;47.356;19.448;2022-08-25T00:38:28;15.48;;;7.45;;
68273;SDS011;55104;47.356;19.448;2022-08-25T00:41:30;19.45;;;7.82;;
68273;SDS011;55104;47.356;19.448;2022-08-25T00:44:32;15.73;;;7.57;;
68273;SDS011;55104;47.356;19.448;2022-08-25T00:47:35;16.42;;;8.00;;
68273;SDS011;55104;47.356;19.448;2022-08-25T00:50:38;16.40;;;7.40;;
68273;SDS011;55104;47.356;19.448;2022-08-25T00:53:41;18.73;;;7.25;;
68273;SDS011;55104;47.356;19.448;2022-08-25T00:56:45;16.15;;;7.53;;
68273;SDS011;55104;47.356;19.448;2022-08-25T00:59:47;16.88;;;7.60;;
68273;SDS011;55104;47.356;19.448;2022-08-25T01:02:50;16.40;;;7.32;;
68273;SDS011;55104;47.356;19.448;2022-08-25T01:05:53;13.83;;;6.60;;
68273;SDS011;55104;47.356;19.448;2022-08-25T01:08:57;14.57;;;7.40;;
68273;SDS011;55104;47.356;19.448;2022-08-25T01:12:00;17.42;;;7.97;;
68273;SDS011;55104;47.356;19.448;2022-08-25T01:15:03;18.05;;;7.90;;
68273;SDS011;55104;47.356;19.448;2022-08-25T01:18:07;19.60;;;7.43;;
68273;SDS011;55104;47.356;19.448;2022-08-25T01:21:09;17.70;;;8.20;;
68273;SDS011;55104;47.356;19.448;2022-08-25T01:24:15;16.90;;;8.15;;
68273;SDS011;55104;47.356;19.448;2022-08-25T01:27:40;18.33;;;7.82;;
68273;SDS011;55104;47.356;19.448;2022-08-25T01:30:42;18.92;;;7.53;;
68273;SDS011;55104;47.356;19.448;2022-08-25T01:33:44;17.02;;;9.15;;
68273;SDS011;55104;47.356;19.448;2022-08-25T01:36:46;16.13;;;7.23;;
68273;SDS011;55104;47.356;19.448;2022-08-25T01:39:48;15.10;;;7.72;;
68273;SDS011;55104;47.356;19.448;2022-08-25T01:46:11;15.25;;;7.38;;
68273;SDS011;55104;47.356;19.448;2022-08-25T01:49:13;20.65;;;8.88;;
68273;SDS011;55104;47.356;19.448;2022-08-25T01:52:20;18.30;;;7.87;;
68273;SDS011;55104;47.356;19.448;2022-08-25T01:55:28;15.45;;;7.63;;
68273;SDS011;55104;47.356;19.448;2022-08-25T01:58:33;15.25;;;8.82;;
68273;SDS011;55104;47.356;19.448;2022-08-25T02:01:36;16.42;;;7.75;;
68273;SDS011;55104;47.356;19.448;2022-08-25T02:04:38;18.77;;;8.57;;
68273;SDS011;55104;47.356;19.448;2022-08-25T02:07:45;18.40;;;8.20;;
68273;SDS011;55104;47.356;19.448;2022-08-25T02:10:47;17.20;;;7.90;;
68273;SDS011;55104;47.356;19.448;2022-08-25T02:13:50;13.82;;;8.18;;
68273;SDS011;55104;47.356;19.448;2022-08-25T02:16:53;14.02;;;7.35;;
68273;SDS011;55104;47.356;19.448;2022-08-25T02:19:55;17.88;;;8.00;;
68273;SDS011;55104;47.356;19.448;2022-08-25T02:22:58;15.87;;;7.47;;
68273;SDS011;55104;47.356;19.448;2022-08-25T02:26:00;17.08;;;7.78;;
68273;SDS011;55104;47.356;19.448;2022-08-25T02:29:03;17.83;;;7.70;;
68273;SDS011;55104;47.356;19.448;2022-08-25T02:32:05;13.95;;;7.05;;
68273;SDS011;55104;47.356;19.448;2022-08-25T02:35:08;16.90;;;7.82;;
68273;SDS011;55104;47.356;19.448;2022-08-25T02:38:10;15.90;;;7.43;;
68273;SDS011;55104;47.356;19.448;2022-08-25T02:41:14;13.13;;;6.75;;
68273;SDS011;55104;47.356;19.448;2022-08-25T02:44:21;14.80;;;6.97;;
68273;SDS011;55104;47.356;19.448;2022-08-25T02:47:23;14.80;;;7.25;;
68273;SDS011;55104;47.356;19.448;2022-08-25T02:50:28;14.65;;;7.38;;
68273;SDS011;55104;47.356;19.448;2022-08-25T02:53:30;16.13;;;7.07;;
68273;SDS011;55104;47.356;19.448;2022-08-25T02:56:33;14.07;;;7.20;;
68273;SDS011;55104;47.356;19.448;2022-08-25T02:59:35;18.10;;;7.38;;
68273;SDS011;55104;47.356;19.448;2022-08-25T03:02:37;19.77;;;7.40;;
68273;SDS011;55104;47.356;19.448;2022-08-25T03:05:42;16.10;;;7.35;;
68273;SDS011;55104;47.356;19.448;2022-08-25T03:08:44;15.77;;;7.17;;
68273;SDS011;55104;47.356;19.448;2022-08-25T03:11:46;16.42;;;7.10;;
68273;SDS011;55104;47.356;19.448;2022-08-25T03:14:48;16.92;;;7.47;;
68273;SDS011;55104;47.356;19.448;2022-08-25T03:17:50;16.02;;;7.25;;
68273;SDS011;55104;47.356;19.448;2022-08-25T03:20:53;15.80;;;7.00;;
68273;SDS011;55104;47.356;19.448;2022-08-25T03:23:55;14.17;;;6.60;;
68273;SDS011;55104;47.356;19.448;2022-08-25T03:26:57;15.68;;;6.80;;
68273;SDS011;55104;47.356;19.448;2022-08-25T03:29:59;17.55;;;7.82;;
68273;SDS011;55104;47.356;19.448;2022-08-25T03:33:05;16.50;;;7.28;;
68273;SDS011;55104;47.356;19.448;2022-08-25T03:36:07;18.92;;;7.43;;
68273;SDS011;55104;47.356;19.448;2022-08-25T03:39:12;13.77;;;6.93;;
68273;SDS011;55104;47.356;19.448;2022-08-25T03:42:15;15.18;;;7.32;;
68273;SDS011;55104;47.356;19.448;2022-08-25T03:45:17;14.20;;;7.82;;
68273;SDS011;55104;47.356;19.448;2022-08-25T03:48:19;21.08;;;7.60;;
68273;SDS011;55104;47.356;19.448;2022-08-25T03:51:22;15.45;;;6.65;;
68273;SDS011;55104;47.356;19.448;2022-08-25T03:54:26;14.43;;;7.10;;
68273;SDS011;55104;47.356;19.448;2022-08-25T03:57:28;16.77;;;6.93;;
68273;SDS011;55104;47.356;19.448;2022-08-25T04:00:30;16.85;;;7.80;;
68273;SDS011;55104;47.356;19.448;2022-08-25T04:03:32;18.52;;;7.85;;
68273;SDS011;55104;47.356;19.448;2022-08-25T04:06:36;15.85;;;7.22;;
68273;SDS011;55104;47.356;19.448;2022-08-25T04:09:40;16.30;;;7.70;;
68273;SDS011;55104;47.356;19.448;2022-08-25T04:12:42;18.65;;;8.30;;
68273;SDS011;55104;47.356;19.448;2022-08-25T04:15:44;19.83;;;7.55;;
68273;SDS011;55104;47.356;19.448;2022-08-25T04:18:47;17.63;;;7.53;;
68273;SDS011;55104;47.356;19.448;2022-08-25T04:21:50;12.82;;;7.15;;
68273;SDS011;55104;47.356;19.448;2022-08-25T04:24:57;13.77;;;6.60;;
68273;SDS011;55104;47.356;19.448;2022-08-25T04:28:00;18.50;;;7.50;;
68273;SDS011;55104;47.356;19.448;2022-08-25T04:31:06;15.50;;;7.53;;
68273;SDS011;55104;47.356;19.448;2022-08-25T04:34:09;15.40;;;6.45;;
68273;SDS011;55104;47.356;19.448;2022-08-25T04:37:30;12.98;;;6.85;;
68273;SDS011;55104;47.356;19.448;2022-08-25T04:40:33;14.23;;;7.00;;
68273;SDS011;55104;47.356;19.448;2022-08-25T04:43:36;16.10;;;6.85;;
68273;SDS011;55104;47.356;19.448;2022-08-25T04:46:39;16.70;;;7.45;;
68273;SDS011;55104;47.356;19.448;2022-08-25T04:49:41;14.25;;;6.35;;
68273;SDS011;55104;47.356;19.448;2022-08-25T04:52:43;14.63;;;6.53;;
68273;SDS011;55104;47.356;19.448;2022-08-25T04:55:46;18.23;;;7.17;;
68273;SDS011;55104;47.356;19.448;2022-08-25T04:58:48;12.63;;;5.80;;
68273;SDS011;55104;47.356;19.448;2022-08-25T05:01:51;16.50;;;6.68;;
68273;SDS011;55104;47.356;19.448;2022-08-25T05:04:53;13.43;;;5.30;;
68273;SDS011;55104;47.356;19.448;2022-08-25T05:07:56;16.23;;;5.53;;
68273;SDS011;55104;47.356;19.448;2022-08-25T05:11:03;17.40;;;5.80;;
68273;SDS011;55104;47.356;19.448;2022-08-25T05:14:08;12.45;;;5.70;;
68273;SDS011;55104;47.356;19.448;2022-08-25T05:17:12;14.45;;;5.57;;
68273;SDS011;55104;47.356;19.448;2022-08-25T05:20:15;15.60;;;5.82;;
68273;SDS011;55104;47.356;19.448;2022-08-25T05:23:17;11.88;;;5.82;;
68273;SDS011;55104;47.356;19.448;2022-08-25T05:26:19;14.27;;;5.50;;
68273;SDS011;55104;47.356;19.448;2022-08-25T05:29:22;15.80;;;5.55;;
68273;SDS011;55104;47.356;19.448;2022-08-25T05:32:25;13.77;;;5.72;;
68273;SDS011;55104;47.356;19.448;2022-08-25T05:35:27;17.42;;;6.40;;
68273;SDS011;55104;47.356;19.448;2022-08-25T05:38:29;12.73;;;5.68;;
68273;SDS011;55104;47.356;19.448;2022-08-25T05:41:31;15.23;;;6.93;;
68273;SDS011;55104;47.356;19.448;2022-08-25T05:44:33;15.90;;;6.32;;
68273;SDS011;55104;47.356;19.448;2022-08-25T05:47:36;14.15;;;6.68;;
68273;SDS011;55104;47.356;19.448;2022-08-25T05:50:38;13.50;;;6.20;;
68273;SDS011;55104;47.356;19.448;2022-08-25T05:53:41;16.15;;;6.40;;
68273;SDS011;55104;47.356;19.448;2022-08-25T05:56:45;13.70;;;5.00;;
68273;SDS011;55104;47.356;19.448;2022-08-25T05:59:48;15.80;;;4.88;;
68273;SDS011;55104;47.356;19.448;2022-08-25T06:02:50;12.25;;;4.90;;
68273;SDS011;55104;47.356;19.448;2022-08-25T06:05:52;16.00;;;5.40;;
68273;SDS011;55104;47.356;19.448;2022-08-25T06:08:54;13.77;;;4.65;;
68273;SDS011;55104;47.356;19.448;2022-08-25T06:11:56;12.13;;;4.23;;
68273;SDS011;55104;47.356;19.448;2022-08-25T06:14:59;13.25;;;5.15;;
68273;SDS011;55104;47.356;19.448;2022-08-25T06:18:01;12.68;;;4.78;;
68273;SDS011;55104;47.356;19.448;2022-08-25T06:21:12;10.90;;;4.28;;
68273;SDS011;55104;47.356;19.448;2022-08-25T06:24:15;11.93;;;4.38;;
68273;SDS011;55104;47.356;19.448;2022-08-25T06:27:17;12.47;;;3.80;;
68273;SDS011;55104;47.356;19.448;2022-08-25T06:30:20;13.07;;;4.07;;
68273;SDS011;55104;47.356;19.448;2022-08-25T06:33:29;11.77;;;4.13;;
68273;SDS011;55104;47.356;19.448;2022-08-25T06:36:32;10.82;;;3.97;;
68273;SDS011;55104;47.356;19.448;2022-08-25T06:39:34;12.57;;;3.95;;
68273;SDS011;55104;47.356;19.448;2022-08-25T06:42:36;11.43;;;3.77;;
68273;SDS011;55104;47.356;19.448;2022-08-25T06:45:38;13.40;;;3.65;;
68273;SDS011;55104;47.356;19.448;2022-08-25T06:48:40;12.30;;;3.08;;
68273;SDS011;55104;47.356;19.448;2022-08-25T06:51:43;9.43;;;3.38;;
68273;SDS011;55104;47.356;19.448;2022-08-25T06:54:47;11.50;;;3.88;;
68273;SDS011;55104;47.356;19.448;2022-08-25T06:57:51;12.70;;;3.17;;
68273;SDS011;55104;47.356;19.448;2022-08-25T07:01:04;13.45;;;3.10;;
68273;SDS011;55104;47.356;19.448;2022-08-25T07:04:16;7.97;;;2.88;;
68273;SDS011;55104;47.356;19.448;2022-08-25T07:07:19;9.25;;;3.05;;
68273;SDS011;55104;47.356;19.448;2022-08-25T07:10:22;8.15;;;2.90;;
68273;SDS011;55104;47.356;19.448;2022-08-25T07:13:24;10.97;;;3.07;;
68273;SDS011;55104;47.356;19.448;2022-08-25T07:16:26;10.93;;;2.97;;
68273;SDS011;55104;47.356;19.448;2022-08-25T07:19:31;8.88;;;2.75;;
68273;SDS011;55104;47.356;19.448;2022-08-25T07:22:33;7.78;;;2.60;;
68273;SDS011;55104;47.356;19.448;2022-08-25T07:25:36;10.23;;;2.85;;
68273;SDS011;55104;47.356;19.448;2022-08-25T07:28:39;8.87;;;2.80;;
68273;SDS011;55104;47.356;19.448;2022-08-25T07:31:48;10.55;;;2.95;;
68273;SDS011;55104;47.356;19.448;2022-08-25T07:34:50;6.78;;;2.55;;
68273;SDS011;55104;47.356;19.448;2022-08-25T07:38:11;9.65;;;2.97;;
68273;SDS011;55104;47.356;19.448;2022-08-25T07:41:21;10.65;;;3.10;;
68273;SDS011;55104;47.356;19.448;2022-08-25T07:44:23;8.80;;;2.87;;
68273;SDS011;55104;47.356;19.448;2022-08-25T07:47:28;8.85;;;3.22;;
68273;SDS011;55104;47.356;19.448;2022-08-25T07:50:31;9.70;;;3.50;;
68273;SDS011;55104;47.356;19.448;2022-08-25T07:53:34;8.15;;;2.58;;
68273;SDS011;55104;47.356;19.448;2022-08-25T07:56:38;8.10;;;2.85;;
68273;SDS011;55104;47.356;19.448;2022-08-25T07:59:42;12.23;;;3.13;;
68273;SDS011;55104;47.356;19.448;2022-08-25T08:02:44;8.73;;;3.05;;
68273;SDS011;55104;47.356;19.448;2022-08-25T08:05:47;10.13;;;3.00;;
68273;SDS011;55104;47.356;19.448;2022-08-25T08:08:50;9.52;;;3.00;;
68273;SDS011;55104;47.356;19.448;2022-08-25T08:11:58;10.10;;;3.00;;
68273;SDS011;55104;47.356;19.448;2022-08-25T08:15:01;7.03;;;2.60;;
68273;SDS011;55104;47.356;19.448;2022-08-25T08:18:04;9.63;;;2.88;;
68273;SDS011;55104;47.356;19.448;2022-08-25T08:21:12;9.82;;;3.13;;
68273;SDS011;55104;47.356;19.448;2022-08-25T08:24:23;8.18;;;2.97;;
68273;SDS011;55104;47.356;19.448;2022-08-25T08:27:45;9.45;;;3.22;;
68273;SDS011;55104;47.356;19.448;2022-08-25T08:30:48;9.13;;;2.97;;
68273;SDS011;55104;47.356;19.448;2022-08-25T08:33:55;9.52;;;3.25;;
68273;SDS011;55104;47.356;19.448;2022-08-25T08:36:58;10.20;;;2.90;;
68273;SDS011;55104;47.356;19.448;2022-08-25T08:40:01;9.77;;;2.75;;
68273;SDS011;55104;47.356;19.448;2022-08-25T08:43:06;12.85;;;3.75;;
68273;SDS011;55104;47.356;19.448;2022-08-25T08:46:20;10.57;;;2.70;;
68273;SDS011;55104;47.356;19.448;2022-08-25T08:53:07;13.30;;;3.17;;
68273;SDS011;55104;47.356;19.448;2022-08-25T08:56:40;9.27;;;2.83;;
68273;SDS011;55104;47.356;19.448;2022-08-25T08:59:50;9.57;;;3.13;;
68273;SDS011;55104;47.356;19.448;2022-08-25T09:03:03;10.70;;;4.20;;
68273;SDS011;55104;47.356;19.448;2022-08-25T09:09:23;11.38;;;3.70;;
68273;SDS011;55104;47.356;19.448;2022-08-25T09:13:01;8.68;;;2.75;;
68273;SDS011;55104;47.356;19.448;2022-08-25T09:16:24;11.02;;;3.25;;
68273;SDS011;55104;47.356;19.448;2022-08-25T09:26:49;12.20;;;3.50;;
68273;SDS011;55104;47.356;19.448;2022-08-25T09:33:10;12.57;;;3.58;;
68273;SDS011;55104;47.356;19.448;2022-08-25T09:36:22;9.07;;;3.20;;
68273;SDS011;55104;47.356;19.448;2022-08-25T09:39:25;9.73;;;3.50;;
68273;SDS011;55104;47.356;19.448;2022-08-25T09:42:44;9.32;;;3.15;;
68273;SDS011;55104;47.356;19.448;2022-08-25T09:49:38;8.60;;;3.17;;
68273;SDS011;55104;47.356;19.448;2022-08-25T09:52:42;11.77;;;3.63;;
68273;SDS011;55104;47.356;19.448;2022-08-25T09:55:45;13.63;;;3.97;;
68273;SDS011;55104;47.356;19.448;2022-08-25T10:02:36;12.82;;;3.15;;
68273;SDS011;55104;47.356;19.448;2022-08-25T10:06:25;8.80;;;2.80;;
68273;SDS011;55104;47.356;19.448;2022-08-25T10:09:22;12.60;;;3.10;;
68273;SDS011;55104;47.356;19.448;2022-08-25T10:12:35;12.13;;;3.10;;
68273;SDS011;55104;47.356;19.448;2022-08-25T10:15:43;10.52;;;3.42;;
68273;SDS011;55104;47.356;19.448;2022-08-25T10:18:49;12.32;;;3.28;;
68273;SDS011;55104;47.356;19.448;2022-08-25T10:22:07;10.73;;;3.05;;
68273;SDS011;55104;47.356;19.448;2022-08-25T10:25:24;9.97;;;3.13;;
68273;SDS011;55104;47.356;19.448;2022-08-25T10:28:35;10.55;;;3.05;;
68273;SDS011;55104;47.356;19.448;2022-08-25T10:31:52;13.18;;;3.13;;
68273;SDS011;55104;47.356;19.448;2022-08-25T10:35:01;12.70;;;2.80;;
68273;SDS011;55104;47.356;19.448;2022-08-25T10:45:27;11.45;;;3.00;;
68273;SDS011;55104;47.356;19.448;2022-08-25T10:49:01;12.02;;;2.90;;
68273;SDS011;55104;47.356;19.448;2022-08-25T10:52:10;12.35;;;3.65;;
68273;SDS011;55104;47.356;19.448;2022-08-25T10:55:29;9.63;;;2.30;;
68273;SDS011;55104;47.356;19.448;2022-08-25T11:02:28;10.30;;;3.03;;
68273;SDS011;55104;47.356;19.448;2022-08-25T11:08:50;11.95;;;2.80;;
68273;SDS011;55104;47.356;19.448;2022-08-25T11:15:54;12.87;;;2.90;;
68273;SDS011;55104;47.356;19.448;2022-08-25T11:19:31;12.07;;;2.58;;
68273;SDS011;55104;47.356;19.448;2022-08-25T11:25:46;10.15;;;2.80;;
68273;SDS011;55104;47.356;19.448;2022-08-25T11:29:04;11.25;;;3.08;;
68273;SDS011;55104;47.356;19.448;2022-08-25T11:32:12;11.13;;;3.27;;
68273;SDS011;55104;47.356;19.448;2022-08-25T11:35:17;10.48;;;2.60;;
68273;SDS011;55104;47.356;19.448;2022-08-25T11:45:48;9.05;;;3.00;;
68273;SDS011;55104;47.356;19.448;2022-08-25T11:55:51;11.25;;;3.15;;
68273;SDS011;55104;47.356;19.448;2022-08-25T11:58:56;14.85;;;3.08;;
68273;SDS011;55104;47.356;19.448;2022-08-25T12:01:59;12.52;;;3.30;;
68273;SDS011;55104;47.356;19.448;2022-08-25T12:05:06;12.83;;;3.17;;
68273;SDS011;55104;47.356;19.448;2022-08-25T12:08:08;14.27;;;3.05;;
68273;SDS011;55104;47.356;19.448;2022-08-25T12:14:42;8.40;;;3.10;;
68273;SDS011;55104;47.356;19.448;2022-08-25T12:18:06;15.25;;;3.55;;
68273;SDS011;55104;47.356;19.448;2022-08-25T12:21:27;8.87;;;2.80;;
68273;SDS011;55104;47.356;19.448;2022-08-25T12:28:25;9.45;;;3.67;;
68273;SDS011;55104;47.356;19.448;2022-08-25T12:38:01;13.23;;;3.20;;
68273;SDS011;55104;47.356;19.448;2022-08-25T12:44:33;18.02;;;4.18;;
68273;SDS011;55104;47.356;19.448;2022-08-25T12:47:42;12.35;;;3.20;;
68273;SDS011;55104;47.356;19.448;2022-08-25T12:50:48;13.63;;;3.45;;
68273;SDS011;55104;47.356;19.448;2022-08-25T12:54:09;14.00;;;3.33;;
68273;SDS011;55104;47.356;19.448;2022-08-25T13:04:14;11.48;;;3.60;;
68273;SDS011;55104;47.356;19.448;2022-08-25T13:11:20;16.37;;;3.67;;
68273;SDS011;55104;47.356;19.448;2022-08-25T13:17:38;12.10;;;3.15;;
68273;SDS011;55104;47.356;19.448;2022-08-25T13:20:40;13.68;;;3.60;;
68273;SDS011;55104;47.356;19.448;2022-08-25T13:23:48;13.70;;;3.80;;
68273;SDS011;55104;47.356;19.448;2022-08-25T13:27:03;10.63;;;3.43;;
68273;SDS011;55104;47.356;19.448;2022-08-25T13:30:15;12.98;;;3.33;;
68273;SDS011;55104;47.356;19.448;2022-08-25T13:33:24;14.90;;;3.58;;
68273;SDS011;55104;47.356;19.448;2022-08-25T13:36:27;11.70;;;3.40;;
68273;SDS011;55104;47.356;19.448;2022-08-25T13:43:12;18.70;;;3.63;;
68273;SDS011;55104;47.356;19.448;2022-08-25T13:46:19;20.17;;;3.78;;
68273;SDS011;55104;47.356;19.448;2022-08-25T13:49:25;13.88;;;3.50;;
68273;SDS011;55104;47.356;19.448;2022-08-25T13:52:28;16.88;;;3.90;;
68273;SDS011;55104;47.356;19.448;2022-08-25T13:55:35;13.32;;;3.42;;
68273;SDS011;55104;47.356;19.448;2022-08-25T13:58:52;18.50;;;3.87;;
68273;SDS011;55104;47.356;19.448;2022-08-25T14:01:57;13.35;;;3.90;;
68273;SDS011;55104;47.356;19.448;2022-08-25T14:05:00;13.60;;;3.58;;
68273;SDS011;55104;47.356;19.448;2022-08-25T14:08:04;12.77;;;3.70;;
68273;SDS011;55104;47.356;19.448;2022-08-25T14:14:33;15.83;;;3.47;;
68273;SDS011;55104;47.356;19.448;2022-08-25T14:17:36;18.10;;;3.80;;
68273;SDS011;55104;47.356;19.448;2022-08-25T14:20:42;11.93;;;3.50;;
68273;SDS011;55104;47.356;19.448;2022-08-25T14:23:48;14.10;;;3.42;;
68273;SDS011;55104;47.356;19.448;2022-08-25T14:26:50;12.02;;;3.10;;
68273;SDS011;55104;47.356;19.448;2022-08-25T14:29:55;14.70;;;3.23;;
68273;SDS011;55104;47.356;19.448;2022-08-25T14:32:57;12.38;;;3.20;;
68273;SDS011;55104;47.356;19.448;2022-08-25T14:36:00;14.43;;;3.30;;
68273;SDS011;55104;47.356;19.448;2022-08-25T14:39:06;11.48;;;3.72;;
68273;SDS011;55104;47.356;19.448;2022-08-25T14:42:09;21.67;;;4.00;;
68273;SDS011;55104;47.356;19.448;2022-08-25T14:45:13;13.53;;;3.60;;
68273;SDS011;55104;47.356;19.448;2022-08-25T14:48:19;16.70;;;4.15;;
68273;SDS011;55104;47.356;19.448;2022-08-25T14:51:27;11.95;;;3.30;;
68273;SDS011;55104;47.356;19.448;2022-08-25T14:54:33;11.82;;;3.20;;
68273;SDS011;55104;47.356;19.448;2022-08-25T14:57:38;9.18;;;3.42;;
68273;SDS011;55104;47.356;19.448;2022-08-25T15:00:41;15.80;;;3.83;;
68273;SDS011;55104;47.356;19.448;2022-08-25T15:03:46;15.90;;;3.58;;
68273;SDS011;55104;47.356;19.448;2022-08-25T15:06:54;15.32;;;5.70;;
68273;SDS011;55104;47.356;19.448;2022-08-25T15:09:58;10.85;;;3.75;;
68273;SDS011;55104;47.356;19.448;2022-08-25T15:13:00;10.50;;;3.33;;
68273;SDS011;55104;47.356;19.448;2022-08-25T15:16:03;13.97;;;3.67;;
68273;SDS011;55104;47.356;19.448;2022-08-25T15:19:06;12.15;;;3.70;;
68273;SDS011;55104;47.356;19.448;2022-08-25T15:22:10;13.35;;;3.78;;
68273;SDS011;55104;47.356;19.448;2022-08-25T15:25:12;12.75;;;3.55;;
68273;SDS011;55104;47.356;19.448;2022-08-25T15:28:15;14.07;;;3.53;;
68273;SDS011;55104;47.356;19.448;2022-08-25T15:31:22;14.07;;;4.50;;
68273;SDS011;55104;47.356;19.448;2022-08-25T15:34:27;15.65;;;3.45;;
68273;SDS011;55104;47.356;19.448;2022-08-25T15:37:30;13.13;;;3.65;;
68273;SDS011;55104;47.356;19.448;2022-08-25T15:40:32;13.00;;;3.58;;
68273;SDS011;55104;47.356;19.448;2022-08-25T15:43:36;11.75;;;3.33;;
68273;SDS011;55104;47.356;19.448;2022-08-25T15:46:40;15.60;;;3.53;;
68273;SDS011;55104;47.356;19.448;2022-08-25T15:49:47;10.85;;;3.42;;
68273;SDS011;55104;47.356;19.448;2022-08-25T15:52:50;13.57;;;3.22;;
68273;SDS011;55104;47.356;19.448;2022-08-25T15:55:52;14.95;;;3.28;;
68273;SDS011;55104;47.356;19.448;2022-08-25T15:58:55;10.20;;;3.10;;
68273;SDS011;55104;47.356;19.448;2022-08-25T16:01:57;13.23;;;3.50;;
68273;SDS011;55104;47.356;19.448;2022-08-25T16:05:00;15.25;;;3.20;;
68273;SDS011;55104;47.356;19.448;2022-08-25T16:08:03;13.18;;;3.55;;
68273;SDS011;55104;47.356;19.448;2022-08-25T16:11:05;11.27;;;3.20;;
68273;SDS011;55104;47.356;19.448;2022-08-25T16:14:19;17.48;;;4.38;;
68273;SDS011;55104;47.356;19.448;2022-08-25T16:17:21;9.60;;;3.20;;
68273;SDS011;55104;47.356;19.448;2022-08-25T16:20:23;13.55;;;3.13;;
68273;SDS011;55104;47.356;19.448;2022-08-25T16:23:25;16.77;;;3.28;;
68273;SDS011;55104;47.356;19.448;2022-08-25T16:26:28;12.75;;;3.35;;
68273;SDS011;55104;47.356;19.448;2022-08-25T16:29:33;11.88;;;3.60;;
68273;SDS011;55104;47.356;19.448;2022-08-25T16:32:37;16.67;;;3.20;;
68273;SDS011;55104;47.356;19.448;2022-08-25T16:35:40;15.55;;;3.63;;
68273;SDS011;55104;47.356;19.448;2022-08-25T16:38:42;13.23;;;3.65;;
68273;SDS011;55104;47.356;19.448;2022-08-25T16:41:51;14.07;;;3.35;;
68273;SDS011;55104;47.356;19.448;2022-08-25T16:44:53;12.23;;;3.58;;
68273;SDS011;55104;47.356;19.448;2022-08-25T16:47:56;11.70;;;3.20;;
68273;SDS011;55104;47.356;19.448;2022-08-25T16:50:59;11.93;;;3.55;;
68273;SDS011;55104;47.356;19.448;2022-08-25T16:54:01;10.20;;;3.35;;
68273;SDS011;55104;47.356;19.448;2022-08-25T16:57:23;12.10;;;3.20;;
68273;SDS011;55104;47.356;19.448;2022-08-25T17:00:27;13.65;;;3.42;;
68273;SDS011;55104;47.356;19.448;2022-08-25T17:03:31;15.37;;;3.63;;
68273;SDS011;55104;47.356;19.448;2022-08-25T17:06:39;15.52;;;3.25;;
68273;SDS011;55104;47.356;19.448;2022-08-25T17:09:52;14.05;;;3.20;;
68273;SDS011;55104;47.356;19.448;2022-08-25T17:12:54;16.23;;;3.80;;
68273;SDS011;55104;47.356;19.448;2022-08-25T17:15:57;12.13;;;3.30;;
68273;SDS011;55104;47.356;19.448;2022-08-25T17:19:04;15.47;;;3.50;;
68273;SDS011;55104;47.356;19.448;2022-08-25T17:22:12;12.07;;;3.25;;
68273;SDS011;55104;47.356;19.448;2022-08-25T17:25:16;15.35;;;3.47;;
68273;SDS011;55104;47.356;19.448;2022-08-25T17:28:19;18.08;;;3.60;;
68273;SDS011;55104;47.356;19.448;2022-08-25T17:31:21;14.95;;;3.97;;
68273;SDS011;55104;47.356;19.448;2022-08-25T17:34:25;13.57;;;3.50;;
68273;SDS011;55104;47.356;19.448;2022-08-25T17:37:28;16.77;;;3.63;;
68273;SDS011;55104;47.356;19.448;2022-08-25T17:40:30;16.67;;;3.78;;
68273;SDS011;55104;47.356;19.448;2022-08-25T17:43:36;10.13;;;3.33;;
68273;SDS011;55104;47.356;19.448;2022-08-25T17:46:41;11.43;;;3.38;;
68273;SDS011;55104;47.356;19.448;2022-08-25T17:49:48;9.97;;;3.57;;
68273;SDS011;55104;47.356;19.448;2022-08-25T17:52:50;11.68;;;3.00;;
68273;SDS011;55104;47.356;19.448;2022-08-25T17:56:00;12.40;;;3.10;;
68273;SDS011;55104;47.356;19.448;2022-08-25T17:59:04;12.13;;;3.50;;
68273;SDS011;55104;47.356;19.448;2022-08-25T18:02:07;13.30;;;3.75;;
68273;SDS011;55104;47.356;19.448;2022-08-25T18:05:12;13.23;;;3.47;;
68273;SDS011;55104;47.356;19.448;2022-08-25T18:08:15;10.25;;;3.63;;
68273;SDS011;55104;47.356;19.448;2022-08-25T18:11:19;16.40;;;4.78;;
68273;SDS011;55104;47.356;19.448;2022-08-25T18:14:24;12.93;;;3.42;;
68273;SDS011;55104;47.356;19.448;2022-08-25T18:17:26;10.77;;;3.70;;
68273;SDS011;55104;47.356;19.448;2022-08-25T18:20:29;14.60;;;3.97;;
68273;SDS011;55104;47.356;19.448;2022-08-25T18:23:31;12.23;;;4.13;;
68273;SDS011;55104;47.356;19.448;2022-08-25T18:26:34;11.82;;;3.60;;
68273;SDS011;55104;47.356;19.448;2022-08-25T18:29:36;14.50;;;3.88;;
68273;SDS011;55104;47.356;19.448;2022-08-25T18:32:41;14.15;;;4.25;;
68273;SDS011;55104;47.356;19.448;2022-08-25T18:35:43;14.13;;;3.87;;
68273;SDS011;55104;47.356;19.448;2022-08-25T18:38:45;11.90;;;4.60;;
68273;SDS011;55104;47.356;19.448;2022-08-25T18:42:06;10.05;;;4.05;;
68273;SDS011;55104;47.356;19.448;2022-08-25T18:45:09;16.38;;;3.90;;
68273;SDS011;55104;47.356;19.448;2022-08-25T18:48:17;11.25;;;3.60;;
68273;SDS011;55104;47.356;19.448;2022-08-25T18:51:27;13.30;;;3.70;;
68273;SDS011;55104;47.356;19.448;2022-08-25T18:54:33;15.82;;;3.72;;
68273;SDS011;55104;47.356;19.448;2022-08-25T18:57:36;15.40;;;4.22;;
68273;SDS011;55104;47.356;19.448;2022-08-25T19:00:43;12.15;;;3.60;;
68273;SDS011;55104;47.356;19.448;2022-08-25T19:03:46;12.38;;;3.90;;
68273;SDS011;55104;47.356;19.448;2022-08-25T19:06:49;12.23;;;3.93;;
68273;SDS011;55104;47.356;19.448;2022-08-25T19:09:52;16.75;;;4.28;;
68273;SDS011;55104;47.356;19.448;2022-08-25T19:12:59;13.63;;;3.67;;
68273;SDS011;55104;47.356;19.448;2022-08-25T19:16:10;13.77;;;3.70;;
68273;SDS011;55104;47.356;19.448;2022-08-25T19:19:18;9.75;;;3.40;;
68273;SDS011;55104;47.356;19.448;2022-08-25T19:22:20;15.47;;;4.27;;
68273;SDS011;55104;47.356;19.448;2022-08-25T19:25:42;11.13;;;3.45;;
68273;SDS011;55104;47.356;19.448;2022-08-25T19:28:45;11.68;;;4.43;;
68273;SDS011;55104;47.356;19.448;2022-08-25T19:31:49;17.60;;;4.00;;
68273;SDS011;55104;47.356;19.448;2022-08-25T19:34:51;13.57;;;4.10;;
68273;SDS011;55104;47.356;19.448;2022-08-25T19:37:56;14.77;;;3.97;;
68273;SDS011;55104;47.356;19.448;2022-08-25T19:41:00;12.90;;;3.38;;
68273;SDS011;55104;47.356;19.448;2022-08-25T19:44:11;16.63;;;3.95;;
68273;SDS011;55104;47.356;19.448;2022-08-25T19:47:13;16.33;;;4.00;;
68273;SDS011;55104;47.356;19.448;2022-08-25T19:50:21;10.35;;;3.72;;